createdAt,value
2022-11-05T00:00:35.904Z,100.00
2022-11-05T00:03:23.524Z,100.00
2022-11-05T00:06:12.262Z,100.00
2022-11-05T00:09:00.301Z,100.00
2022-11-05T00:11:47.181Z,100.00
2022-11-05T00:14:33.213Z,100.00
2022-11-05T00:17:01.151Z,100.00
2022-11-05T00:19:28.693Z,100.00
2022-11-05T00:22:14.734Z,100.00
2022-11-05T00:25:01.209Z,100.00
2022-11-05T00:27:29.222Z,100.00
2022-11-05T00:29:57.127Z,100.00
2022-11-05T00:32:24.738Z,100.00
2022-11-05T00:34:52.347Z,100.00
2022-11-05T00:37:19.976Z,100.00
2022-11-05T00:39:47.915Z,100.00
2022-11-05T00:42:34.931Z,100.00
2022-11-05T00:45:03.185Z,100.00
2022-11-05T00:47:51.159Z,100.00
2022-11-05T00:50:20.573Z,100.00
2022-11-05T00:52:56.739Z,100.00
2022-11-05T00:55:30.879Z,100.00
2022-11-05T00:57:58.519Z,100.00
2022-11-05T01:00:29.821Z,100.00
2022-11-05T01:03:02.063Z,100.00
2022-11-05T01:05:30.844Z,100.00
2022-11-05T01:07:59.095Z,100.00
2022-11-05T01:10:27.976Z,98.96
2022-11-05T01:12:56.535Z,100.00
2022-11-05T01:15:24.687Z,100.00
2022-11-05T01:17:52.779Z,100.00
2022-11-05T01:20:20.384Z,99.72
2022-11-05T01:22:48.399Z,97.28
2022-11-05T01:25:16.011Z,97.21
2022-11-05T01:27:44.317Z,97.99
2022-11-05T01:30:13.005Z,99.22
2022-11-05T01:32:41.102Z,97.94
2022-11-05T01:35:17.891Z,96.57
2022-11-05T01:37:46.583Z,96.80
2022-11-05T01:40:21.087Z,97.23
2022-11-05T01:42:49.302Z,97.06
2022-11-05T01:45:22.635Z,97.17
2022-11-05T01:47:53.346Z,98.17
2022-11-05T01:50:29.441Z,99.07
2022-11-05T01:53:09.900Z,100.00
2022-11-05T01:55:44.613Z,99.35
2022-11-05T01:58:18.347Z,99.35
2022-11-05T02:00:45.815Z,100.00
2022-11-05T02:03:16.617Z,99.68
2022-11-05T02:05:45.402Z,98.49
2022-11-05T02:08:20.236Z,98.94
2022-11-05T02:10:48.576Z,98.52
2022-11-05T02:13:16.141Z,96.85
2022-11-05T02:16:14.806Z,97.36
2022-11-05T02:18:51.337Z,96.89
2022-11-05T02:21:21.560Z,96.43
2022-11-05T02:24:03.643Z,96.39
2022-11-05T02:26:35.225Z,93.97
2022-11-05T02:29:14.831Z,93.25
2022-11-05T02:32:01.190Z,92.06
2022-11-05T02:35:08.142Z,89.77
2022-11-05T02:37:42.030Z,88.65
2022-11-05T02:40:19.254Z,86.73
2022-11-05T02:42:55.450Z,86.58
2022-11-05T02:45:39.389Z,85.63
2022-11-05T02:48:25.262Z,85.42
2022-11-05T02:51:03.012Z,80.89
2022-11-05T02:53:45.453Z,86.56
2022-11-05T02:56:22.708Z,82.71
2022-11-05T02:58:50.577Z,82.15
2022-11-05T03:01:18.188Z,84.79
2022-11-05T03:03:55.912Z,72.70
2022-11-05T03:06:54.522Z,70.62
2022-11-05T03:09:24.979Z,74.75
2022-11-05T03:12:12.288Z,77.86
2022-11-05T03:14:58.144Z,75.43
2022-11-05T03:17:45.076Z,68.44
2022-11-05T03:20:16.904Z,73.88
2022-11-05T03:23:05.002Z,71.47
2022-11-05T03:25:39.242Z,73.67
2022-11-05T03:28:09.165Z,68.84
2022-11-05T03:30:41.192Z,70.54
2022-11-05T03:33:22.385Z,72.95
2022-11-05T03:36:01.247Z,77.91
2022-11-05T03:38:34.022Z,79.01
2022-11-05T03:41:07.481Z,76.71
2022-11-05T03:43:50.451Z,71.43
2022-11-05T03:46:36.307Z,71.82
2022-11-05T03:49:07.895Z,73.12
2022-11-05T03:51:58.266Z,73.88
2022-11-05T03:54:28.401Z,74.37
2022-11-05T03:57:04.859Z,74.30
2022-11-05T03:59:43.513Z,76.09
2022-11-05T04:02:13.585Z,75.66
2022-11-05T04:04:42.132Z,77.77
2022-11-05T04:07:30.196Z,76.56
2022-11-05T04:10:16.761Z,76.14
2022-11-05T04:13:03.225Z,73.37
2022-11-05T04:15:30.965Z,76.53
2022-11-05T04:17:59.101Z,74.51
2022-11-05T04:20:45.565Z,78.79
2022-11-05T04:23:32.304Z,78.70
2022-11-05T04:26:00.162Z,78.68
2022-11-05T04:28:48.208Z,77.01
2022-11-05T04:31:16.443Z,77.05
2022-11-05T04:33:44.450Z,76.04
2022-11-05T04:36:12.062Z,78.19
2022-11-05T04:38:40.002Z,82.19
2022-11-05T04:41:15.701Z,75.38
2022-11-05T04:43:44.180Z,77.06
2022-11-05T04:46:12.174Z,76.43
2022-11-05T04:48:39.802Z,78.12
2022-11-05T04:51:07.474Z,77.08
2022-11-05T04:53:35.507Z,78.66
2022-11-05T04:56:21.341Z,78.91
2022-11-05T04:58:50.047Z,79.86
2022-11-05T05:01:20.960Z,79.67
2022-11-05T05:03:49.647Z,76.75
2022-11-05T05:06:18.183Z,76.00
2022-11-05T05:08:50.239Z,75.87
2022-11-05T05:11:20.878Z,75.49
2022-11-05T05:13:49.837Z,77.74
2022-11-05T05:16:23.151Z,81.81
2022-11-05T05:18:52.110Z,75.44
2022-11-05T05:21:39.455Z,75.53
2022-11-05T05:24:14.165Z,76.23
2022-11-05T05:26:45.523Z,76.14
2022-11-05T05:29:13.407Z,75.79
2022-11-05T05:31:42.108Z,76.09
2022-11-05T05:34:14.459Z,73.62
2022-11-05T05:36:42.159Z,75.86
2022-11-05T05:39:13.189Z,76.88
2022-11-05T05:41:40.930Z,73.82
2022-11-05T05:44:08.441Z,73.29
2022-11-05T05:46:35.931Z,75.14
2022-11-05T05:49:06.722Z,72.77
2022-11-05T05:51:38.675Z,70.34
2022-11-05T05:54:06.288Z,72.18
2022-11-05T05:56:34.303Z,79.92
2022-11-05T05:59:02.818Z,76.70
2022-11-05T06:01:30.506Z,77.70
2022-11-05T06:03:58.003Z,82.02
2022-11-05T06:06:25.614Z,83.10
2022-11-05T06:08:54.634Z,84.09
2022-11-05T06:11:24.120Z,79.39
2022-11-05T06:13:51.964Z,81.45
2022-11-05T06:16:19.544Z,80.91
2022-11-05T06:18:47.344Z,78.05
2022-11-05T06:21:17.271Z,82.28
2022-11-05T06:23:45.962Z,84.78
2022-11-05T06:26:17.054Z,88.96
2022-11-05T06:28:45.324Z,88.24
2022-11-05T06:31:14.670Z,86.58
2022-11-05T06:33:42.949Z,87.40
2022-11-05T06:36:15.487Z,88.08
2022-11-05T06:38:43.133Z,85.25
2022-11-05T06:41:11.106Z,86.09
2022-11-05T06:43:39.073Z,86.77
2022-11-05T06:46:07.610Z,87.55
2022-11-05T06:48:35.354Z,87.65
2022-11-05T06:51:03.820Z,88.08
2022-11-05T06:53:32.143Z,82.57
2022-11-05T06:56:05.592Z,83.05
2022-11-05T06:58:34.771Z,80.58
2022-11-05T07:01:08.692Z,82.75
2022-11-05T07:03:38.007Z,78.58
2022-11-05T07:06:07.194Z,75.53
2022-11-05T07:08:36.066Z,73.05
2022-11-05T07:11:04.371Z,79.31
2022-11-05T07:13:32.419Z,73.26
2022-11-05T07:16:00.102Z,74.79
2022-11-05T07:18:27.572Z,72.00
2022-11-05T07:20:55.287Z,64.18
2022-11-05T07:23:23.287Z,64.06
2022-11-05T07:25:51.071Z,60.58
2022-11-05T07:28:18.625Z,59.88
2022-11-05T07:30:46.407Z,58.47
2022-11-05T07:33:14.968Z,59.46
2022-11-05T07:35:42.702Z,58.05
2022-11-05T07:38:11.535Z,55.76
2022-11-05T07:40:39.087Z,54.74
2022-11-05T07:43:06.597Z,53.04
2022-11-05T07:45:34.521Z,54.56
2022-11-05T07:48:04.147Z,51.40
2022-11-05T07:50:34.400Z,52.50
2022-11-05T07:53:03.376Z,52.03
2022-11-05T07:55:31.114Z,52.12
2022-11-05T07:57:59.265Z,51.52
2022-11-05T08:00:28.629Z,52.13
2022-11-05T08:03:08.558Z,53.15
2022-11-05T08:05:39.312Z,51.20
2022-11-05T08:08:09.233Z,49.91
2022-11-05T08:10:38.227Z,48.34
2022-11-05T08:13:07.629Z,48.50
2022-11-05T08:15:36.252Z,43.42
2022-11-05T08:18:06.589Z,43.66
2022-11-05T08:20:35.434Z,44.34
2022-11-05T08:23:02.987Z,43.92
2022-11-05T08:25:31.472Z,42.72
2022-11-05T08:28:05.201Z,42.61
2022-11-05T08:30:33.433Z,42.48
2022-11-05T08:33:05.358Z,42.16
2022-11-05T08:35:34.817Z,42.12
2022-11-05T08:38:05.294Z,40.83
2022-11-05T08:40:35.013Z,40.73
2022-11-05T08:43:05.009Z,40.69
2022-11-05T08:45:34.075Z,41.39
2022-11-05T08:48:06.673Z,39.88
2022-11-05T08:50:35.367Z,40.23
2022-11-05T08:53:03.622Z,38.89
2022-11-05T08:55:31.691Z,42.27
2022-11-05T08:58:04.289Z,42.28
2022-11-05T09:00:34.955Z,41.78
2022-11-05T09:03:05.072Z,40.61
2022-11-05T09:05:38.296Z,39.91
2022-11-05T09:08:08.618Z,39.25
2022-11-05T09:10:37.164Z,39.87
2022-11-05T09:13:05.299Z,38.93
2022-11-05T09:15:35.535Z,38.56
2022-11-05T09:18:05.679Z,38.25
2022-11-05T09:20:34.108Z,38.90
2022-11-05T09:23:02.126Z,36.96
2022-11-05T09:25:30.195Z,36.34
2022-11-05T09:28:09.945Z,33.83
2022-11-05T09:30:44.779Z,33.98
2022-11-05T09:33:13.410Z,33.09
2022-11-05T09:35:42.853Z,33.48
2022-11-05T09:38:10.804Z,31.62
2022-11-05T09:41:00.168Z,30.54
2022-11-05T09:43:33.557Z,29.38
2022-11-05T09:46:09.342Z,32.44
2022-11-05T09:48:39.443Z,33.17
2022-11-05T09:51:07.750Z,34.10
2022-11-05T09:53:40.428Z,30.94
2022-11-05T09:56:19.054Z,30.80
2022-11-05T09:59:24.472Z,32.19
2022-11-05T10:01:58.707Z,32.06
2022-11-05T10:04:31.190Z,33.57
2022-11-05T10:07:01.720Z,34.03
2022-11-05T10:09:38.644Z,35.53
2022-11-05T10:12:15.446Z,30.97
2022-11-05T10:14:49.270Z,33.17
2022-11-05T10:17:24.514Z,33.66
2022-11-05T10:19:58.698Z,34.14
2022-11-05T10:22:26.762Z,34.08
2022-11-05T10:24:55.414Z,32.61
2022-11-05T10:27:29.132Z,31.91
2022-11-05T10:29:57.216Z,29.94
2022-11-05T10:33:05.861Z,30.46
2022-11-05T10:41:24.082Z,30.16
2022-11-05T10:44:19.153Z,33.65
2022-11-05T10:47:12.897Z,32.58
2022-11-05T10:49:47.889Z,31.80
2022-11-05T10:52:40.118Z,32.15
2022-11-05T10:55:17.352Z,34.18
2022-11-05T10:57:49.500Z,32.31
2022-11-05T11:00:16.936Z,32.69
2022-11-05T11:02:58.135Z,32.51
2022-11-05T11:05:31.479Z,33.13
2022-11-05T11:08:05.243Z,32.46
2022-11-05T11:10:41.960Z,32.83
2022-11-05T11:13:27.754Z,33.13
2022-11-05T11:16:13.084Z,32.00
2022-11-05T11:18:44.105Z,32.91
2022-11-05T11:21:19.852Z,31.92
2022-11-05T11:24:07.003Z,32.04
2022-11-05T11:26:38.309Z,31.44
2022-11-05T11:29:13.278Z,30.11
2022-11-05T11:31:41.336Z,28.78
2022-11-05T11:34:21.341Z,29.43
2022-11-05T11:36:54.264Z,29.75
2022-11-05T11:39:28.990Z,31.67
2022-11-05T11:42:00.472Z,31.64
2022-11-05T11:44:35.598Z,30.02
2022-11-05T11:47:10.172Z,30.67
2022-11-05T11:49:57.644Z,29.01
2022-11-05T11:52:36.923Z,30.08
2022-11-05T11:55:11.461Z,28.86
2022-11-05T11:57:45.489Z,27.86
2022-11-05T12:00:13.897Z,27.06
2022-11-05T12:03:06.830Z,28.10
2022-11-05T12:05:40.423Z,26.35
2022-11-05T12:08:07.846Z,26.89
2022-11-05T12:10:59.321Z,25.82
2022-11-05T12:14:26.968Z,26.04
2022-11-05T12:16:57.474Z,26.39
2022-11-05T12:19:31.684Z,26.02
2022-11-05T12:22:18.177Z,24.92
2022-11-05T12:25:27.069Z,25.43
2022-11-05T12:28:12.836Z,26.16
2022-11-05T12:31:07.251Z,26.33
2022-11-05T12:33:41.479Z,29.47
2022-11-05T12:36:39.710Z,29.16
2022-11-05T12:39:39.577Z,30.83
2022-11-05T12:42:30.375Z,32.26
2022-11-05T12:45:10.397Z,28.73
2022-11-05T12:48:08.313Z,27.94
2022-11-05T12:50:46.288Z,27.42
2022-11-05T12:53:38.685Z,26.61
2022-11-05T12:56:32.481Z,27.02
2022-11-05T12:59:27.519Z,26.54
2022-11-05T13:02:03.564Z,26.64
2022-11-05T13:04:59.150Z,27.60
2022-11-05T13:07:35.935Z,25.37
2022-11-05T13:10:18.979Z,24.92
2022-11-05T13:12:56.858Z,25.24
2022-11-05T13:15:49.407Z,25.26
2022-11-05T13:18:23.130Z,25.25
2022-11-05T13:20:54.095Z,24.69
2022-11-05T13:23:46.677Z,23.10
2022-11-05T13:27:16.346Z,22.86
2022-11-05T13:29:50.486Z,23.23
2022-11-05T13:32:36.192Z,21.41
2022-11-05T13:35:07.508Z,22.65
2022-11-05T13:37:59.935Z,22.35
2022-11-05T13:41:20.124Z,21.52
2022-11-05T13:44:09.951Z,19.56
2022-11-05T13:46:58.610Z,20.91
2022-11-05T13:49:47.015Z,21.97
2022-11-05T13:52:17.806Z,21.51
2022-11-05T13:55:07.267Z,19.90
2022-11-05T13:57:37.952Z,19.74
2022-11-05T14:00:11.564Z,18.90
2022-11-05T14:02:48.558Z,17.95
2022-11-05T14:05:24.829Z,19.05
2022-11-05T14:07:54.002Z,17.63
2022-11-05T14:10:31.569Z,16.63
2022-11-05T14:13:20.084Z,16.10
2022-11-05T14:16:05.937Z,17.91
2022-11-05T14:18:46.835Z,16.82
2022-11-05T14:21:26.707Z,17.33
2022-11-05T14:24:13.875Z,18.00
2022-11-05T14:26:41.455Z,18.61
2022-11-05T14:29:22.898Z,21.73
2022-11-05T14:32:08.695Z,20.69
2022-11-05T14:34:43.722Z,20.92
2022-11-05T14:37:11.855Z,22.18
2022-11-05T14:39:41.441Z,21.71
2022-11-05T14:42:12.274Z,22.36
2022-11-05T14:45:04.073Z,24.44
2022-11-05T14:47:40.697Z,27.24
2022-11-05T14:50:11.633Z,30.01
2022-11-05T14:52:50.098Z,32.29
2022-11-05T14:55:36.913Z,34.03
2022-11-05T14:58:29.430Z,35.26
2022-11-05T15:00:58.879Z,35.54
2022-11-05T15:03:33.276Z,35.33
2022-11-05T15:06:30.726Z,37.37
2022-11-05T15:08:59.236Z,38.42
2022-11-05T15:11:35.645Z,39.26
2022-11-05T15:14:08.502Z,39.96
2022-11-05T15:16:42.272Z,40.97
2022-11-05T15:19:37.116Z,42.04
2022-11-05T15:22:11.074Z,43.30
2022-11-05T15:24:41.727Z,44.45
2022-11-05T15:27:19.890Z,45.09
2022-11-05T15:29:47.914Z,45.44
2022-11-05T15:32:23.039Z,45.95
2022-11-05T15:34:55.921Z,46.46
2022-11-05T15:37:26.702Z,47.38
2022-11-05T15:39:55.628Z,47.83
2022-11-05T15:42:26.362Z,49.52
2022-11-05T15:44:57.395Z,49.78
2022-11-05T15:47:28.515Z,52.04
2022-11-05T15:50:14.026Z,53.04
2022-11-05T15:52:50.792Z,54.99
2022-11-05T15:55:23.666Z,57.48
2022-11-05T15:58:03.664Z,60.51
2022-11-05T16:00:34.659Z,60.37
2022-11-05T16:03:28.017Z,62.40
2022-11-05T16:05:56.278Z,63.53
2022-11-05T16:08:27.743Z,63.73
2022-11-05T16:11:00.878Z,65.46
2022-11-05T16:13:28.700Z,65.53
2022-11-05T16:15:59.338Z,66.87
2022-11-05T16:18:37.682Z,69.09
2022-11-05T16:21:10.027Z,68.21
2022-11-05T16:23:52.229Z,69.73
2022-11-05T16:29:41.470Z,72.19
2022-11-05T16:32:19.533Z,71.19
2022-11-05T16:34:50.488Z,71.51
2022-11-05T16:37:21.263Z,71.57
2022-11-05T16:39:49.929Z,72.84
2022-11-05T16:42:23.475Z,71.79
2022-11-05T16:44:54.176Z,71.75
2022-11-05T16:47:22.513Z,73.47
2022-11-05T16:49:51.173Z,74.01
2022-11-05T16:52:19.075Z,74.64
2022-11-05T16:54:46.582Z,73.06
2022-11-05T16:57:27.318Z,73.46
2022-11-05T16:59:55.805Z,74.05
2022-11-05T17:02:23.518Z,74.21
2022-11-05T17:04:51.796Z,75.75
2022-11-05T17:07:20.128Z,76.33
2022-11-05T17:09:48.090Z,75.75
2022-11-05T17:12:16.213Z,77.17
2022-11-05T17:14:43.779Z,77.01
2022-11-05T17:17:11.341Z,78.53
2022-11-05T17:19:42.433Z,77.96
2022-11-05T17:22:10.594Z,76.81
2022-11-05T17:24:38.930Z,77.16
2022-11-05T17:27:06.498Z,77.76
2022-11-05T17:29:34.502Z,77.30
2022-11-05T17:32:02.079Z,77.48
2022-11-05T17:34:29.660Z,78.64
2022-11-05T17:36:57.175Z,80.13
2022-11-05T17:39:31.203Z,78.54
2022-11-05T17:41:59.243Z,78.61
2022-11-05T17:44:27.439Z,78.19
2022-11-05T17:46:54.985Z,77.21
2022-11-05T17:49:22.989Z,76.65
2022-11-05T17:51:51.466Z,78.09
2022-11-05T17:54:19.456Z,80.06
2022-11-05T17:56:46.960Z,79.94
2022-11-05T17:59:14.811Z,80.77
2022-11-05T18:01:43.736Z,80.49
2022-11-05T18:04:12.395Z,80.95
2022-11-05T18:06:41.502Z,81.04
2022-11-05T18:09:10.851Z,81.62
2022-11-05T18:11:40.207Z,82.71
2022-11-05T18:14:08.082Z,81.93
2022-11-05T18:16:36.338Z,82.95
2022-11-05T18:19:04.426Z,83.68
2022-11-05T18:21:31.951Z,84.86
2022-11-05T18:24:03.932Z,86.68
2022-11-05T18:26:32.054Z,86.33
2022-11-05T18:29:05.144Z,86.52
2022-11-05T18:31:32.703Z,87.27
2022-11-05T18:34:00.731Z,88.70
2022-11-05T18:36:30.757Z,88.69
2022-11-05T18:39:00.449Z,90.35
2022-11-05T18:41:28.682Z,90.89
2022-11-05T18:44:00.907Z,91.72
2022-11-05T18:46:56.475Z,91.87
2022-11-05T18:49:17.733Z,92.06
2022-11-05T18:51:46.086Z,91.78
2022-11-05T18:54:14.421Z,90.88
2022-11-05T18:56:45.666Z,91.04
2022-11-05T18:59:35.905Z,92.13
2022-11-05T19:02:04.074Z,92.71
2022-11-05T19:04:31.843Z,93.22
2022-11-05T19:07:04.381Z,93.41
2022-11-05T19:09:34.455Z,95.10
2022-11-05T19:12:02.458Z,96.03
2022-11-05T19:14:32.706Z,96.01
2022-11-05T19:17:01.636Z,96.14
2022-11-05T19:19:29.469Z,94.19
2022-11-05T19:21:57.314Z,93.96
2022-11-05T19:24:24.820Z,95.46
2022-11-05T19:26:52.318Z,95.56
2022-11-05T19:29:19.878Z,96.12
2022-11-05T19:31:47.540Z,94.15
2022-11-05T19:34:16.177Z,95.48
2022-11-05T19:36:43.853Z,96.72
2022-11-05T19:39:14.440Z,97.58
2022-11-05T19:41:42.542Z,99.01
2022-11-05T19:44:10.883Z,99.84
2022-11-05T19:46:38.992Z,100.00
2022-11-05T19:49:06.898Z,99.31
2022-11-05T19:51:34.471Z,100.00
2022-11-05T19:54:03.603Z,99.59
2022-11-05T19:56:34.312Z,100.00
2022-11-05T19:59:03.841Z,100.00
2022-11-05T20:01:31.779Z,100.00
2022-11-05T20:04:02.519Z,100.00
2022-11-05T20:06:34.934Z,100.00
2022-11-05T20:09:21.015Z,100.00
2022-11-05T20:11:50.468Z,100.00
2022-11-05T20:14:18.496Z,100.00
2022-11-05T20:16:47.195Z,100.00
2022-11-05T20:19:17.430Z,100.00
2022-11-05T20:21:45.563Z,100.00
2022-11-05T20:24:20.577Z,100.00
2022-11-05T20:26:52.398Z,100.00
2022-11-05T20:29:20.317Z,100.00
2022-11-05T20:31:50.052Z,100.00
2022-11-05T20:34:18.119Z,100.00
2022-11-05T20:36:45.732Z,100.00
2022-11-05T20:39:13.278Z,97.87
2022-11-05T20:41:40.835Z,95.54
2022-11-05T20:44:08.915Z,96.50
2022-11-05T20:46:36.451Z,95.63
2022-11-05T20:49:04.163Z,95.18
2022-11-05T20:51:33.163Z,97.18
2022-11-05T20:54:01.781Z,96.34
2022-11-05T20:56:32.649Z,96.47
2022-11-05T20:59:01.000Z,97.41
2022-11-05T21:01:32.133Z,98.52
2022-11-05T21:04:00.737Z,98.52
2022-11-05T21:06:28.978Z,98.54
2022-11-05T21:08:56.482Z,100.00
2022-11-05T21:11:24.475Z,100.00
2022-11-05T21:13:52.621Z,100.00
2022-11-05T21:16:20.981Z,100.00
2022-11-05T21:18:49.045Z,100.00
2022-11-05T21:21:19.408Z,100.00
2022-11-05T21:23:47.617Z,100.00
2022-11-05T21:26:17.892Z,100.00
2022-11-05T21:28:45.648Z,100.00
2022-11-05T21:31:15.178Z,100.00
2022-11-05T21:33:43.263Z,100.00
2022-11-05T21:36:13.164Z,100.00
2022-11-05T21:38:41.604Z,100.00
2022-11-05T21:41:12.308Z,100.00
2022-11-05T21:43:41.765Z,100.00
2022-11-05T21:46:12.485Z,100.00
2022-11-05T21:48:40.472Z,100.00
2022-11-05T21:51:29.019Z,100.00
2022-11-05T21:54:15.859Z,100.00
2022-11-05T21:57:09.707Z,100.00
2022-11-05T21:59:48.454Z,100.00
2022-11-05T22:02:22.683Z,100.00
2022-11-05T22:04:52.638Z,100.00
2022-11-05T22:07:24.175Z,100.00
2022-11-05T22:09:53.585Z,100.00
2022-11-05T22:12:21.705Z,100.00
2022-11-05T22:14:49.586Z,100.00
2022-11-05T22:17:18.744Z,100.00
2022-11-05T22:19:47.073Z,100.00
2022-11-05T22:22:14.905Z,100.00
2022-11-05T22:24:43.637Z,100.00
2022-11-05T22:27:14.664Z,100.00
2022-11-05T22:29:43.055Z,100.00
2022-11-05T22:32:11.350Z,100.00
2022-11-05T22:34:39.701Z,100.00
2022-11-05T22:37:07.315Z,100.00
2022-11-05T22:39:34.863Z,100.00
2022-11-05T22:42:08.067Z,100.00
2022-11-05T22:44:36.682Z,100.00
2022-11-05T22:47:05.746Z,98.48
2022-11-05T22:49:34.001Z,97.18
2022-11-05T22:52:01.777Z,96.24
2022-11-05T22:54:29.514Z,94.98
2022-11-05T22:56:58.890Z,94.80
2022-11-05T22:59:26.575Z,96.24
2022-11-05T23:01:54.197Z,95.89
2022-11-05T23:04:21.730Z,93.21
2022-11-05T23:07:07.790Z,92.54
2022-11-05T23:09:54.496Z,93.78
2022-11-05T23:12:31.748Z,93.92
2022-11-05T23:15:02.150Z,92.53
2022-11-05T23:17:48.814Z,89.89
2022-11-05T23:20:41.271Z,88.99
2022-11-05T23:23:31.339Z,91.11
2022-11-05T23:26:21.018Z,92.31
2022-11-05T23:28:48.527Z,95.22
2022-11-05T23:31:34.540Z,92.83
2022-11-05T23:34:02.542Z,90.58
2022-11-05T23:36:49.414Z,92.14
2022-11-05T23:39:17.182Z,94.58
2022-11-05T23:42:03.738Z,95.88
2022-11-05T23:44:49.526Z,97.85
2022-11-05T23:47:36.501Z,98.30
2022-11-05T23:50:05.426Z,97.48
2022-11-05T23:52:33.026Z,98.46
2022-11-05T23:55:01.552Z,98.50
2022-11-05T23:57:29.668Z,98.58
2022-11-05T23:59:57.553Z,98.43
